East Camden, New Jersey
Current Conditions -  °F | °C
As of 9:54 AM on Tuesday 21 Oct 2014 (Local Time) from KPHL Reporting Station
Scattered Clouds Scattered Clouds  
Wind Chill: 58°   Ceiling: Unl
Heat Index: 58°   Visibility: 10mi
Dew Point: 50°   Wind: 0mph
Humidity: 75%   Direction: NA
Pressure: 29.89"   Gusts: NA
Location:  39.9508°N, 75.0881°W
Report Text: KPHL 211354Z 00000KT 10SM FEW065 SCT120 14/10 A2989 RMK AO2 SLP121 T01440100
Loading
Personal Weather Stations






























Interactive Weather Map
Tropical Storm Tracking
New forecast layout! Learn more

10-Day Weather Forecast

Advertisements
Track Severe Weather on mobile